KHIE

Mount Washington Regional Airport

Whitefield, New Hampshire, USA
METAR KHIE 231052Z AUTO 00000KT 5SM BR FEW009 OVC023 12/12 A2990 RMK AO2 SLP126 T01220117
Observed Flight Rules
May-23 @ 10:52 UTC (22 minutes ago) Marginal Visual Flight Rules
Visibility Clouds Conditions
5 miles
  • Few at 900' AGL
  • Overcast at 2,300' AGL
  • Mist
Temperatures Readings
Current 12°C / 54°F
Dewpoint 12°C / 54°F
Humidity 100%
Altimeter 29.9" Hg
Pressure 1012.6 hPa
Elevation 318
METAR KHIE 231052Z AUTO 00000KT 5SM BR FEW009 OVC023 12/12 A2990 RMK AO2 SLP126 T01220117
Observed Flight Rules
May-23 @ 10:52 UTC
(22 minutes ago)
MVFR
Clouds
  • Few at 900' AGL
  • Overcast at 2,300' AGL
Conditions
  • Mist
Temperature Dewpoint
12°C / 54°F 12°C / 54°F
Humidity Altimeter Pressure
100% 29.9" Hg 1012.6 hPa